Time;durP1;ratioP1;P1;durP2;ratioP2;P2;SDS_P1;SDS_P2;PMS_P1;PMS_P2;Temp;Humidity;BMP_temperature;BMP_pressure;BME280_temperature;BME280_humidity;BME280_pressure;Samples;Min_cycle;Max_cycle;Signal;HPM_P1;HPM_P2
2023/06/13 00:01:12;;;;;;;7.65;4.10;;;;;;;-146.27;38.41;80283.53;5029899;28;20877;-68
2023/06/13 00:03:39;;;;;;;15.98;5.53;;;;;;;-146.27;39.11;80257.44;5030404;28;20037;-67
2023/06/13 00:06:05;;;;;;;7.43;4.45;;;;;;;-146.27;38.07;80289.56;5021427;28;20021;-67
2023/06/13 00:08:31;;;;;;;10.85;4.43;;;;;;;-146.27;38.96;80303.59;5030563;28;20112;-68
2023/06/13 00:10:59;;;;;;;6.63;4.85;;;;;;;-146.27;39.22;80271.47;5027502;28;20046;-68
2023/06/13 00:13:25;;;;;;;6.70;4.32;;;;;;;-146.27;39.42;80343.75;5025581;28;20117;-68
2023/06/13 00:15:58;;;;;;;6.13;4.68;;;;;;;-146.27;39.99;80391.94;5026741;28;20105;-67
2023/06/13 00:18:24;;;;;;;7.70;4.50;;;;;;;-146.27;41.96;80432.09;5024572;28;20057;-67
2023/06/13 00:20:54;;;;;;;7.20;4.32;;;;;;;-146.27;39.94;80454.19;5024212;28;20052;-68
2023/06/13 00:23:20;;;;;;;8.35;4.95;;;;;;;-146.27;40.35;80480.28;5023779;28;20397;-69
2023/06/13 00:25:46;;;;;;;7.70;4.25;;;;;;;-146.27;40.30;80496.34;5028145;28;20033;-67
2023/06/13 00:28:11;;;;;;;5.18;4.00;;;;;;;-146.27;39.42;80520.44;5022707;28;20036;-67
2023/06/13 00:30:37;;;;;;;8.18;4.25;;;;;;;-146.27;40.78;80524.47;5028317;28;20105;-68
2023/06/13 00:33:04;;;;;;;6.90;4.30;;;;;;;-146.27;40.70;80530.50;5019421;28;20055;-67
2023/06/13 00:35:31;;;;;;;7.63;4.35;;;;;;;-146.27;41.53;80578.69;5029983;28;20036;-68
2023/06/13 00:37:56;;;;;;;6.93;4.40;;;;;;;-146.27;40.60;80548.56;5026752;28;20033;-69
2023/06/13 00:40:23;;;;;;;9.02;4.47;;;;;;;-146.27;40.66;80576.66;5032924;28;20029;-67
2023/06/13 00:42:52;;;;;;;5.85;4.25;;;;;;;-146.27;40.84;80636.91;5028793;28;20409;-68
2023/06/13 00:45:24;;;;;;;8.27;4.50;;;;;;;-146.27;40.40;80608.78;5031939;28;20430;-69
2023/06/13 00:47:57;;;;;;;6.65;4.22;;;;;;;-146.27;40.39;80628.88;5028854;28;20048;-67
2023/06/13 00:50:26;;;;;;;12.10;4.63;;;;;;;-146.27;40.56;80630.88;5024650;28;20049;-67
2023/06/13 00:52:54;;;;;;;4.72;4.07;;;;;;;-146.27;41.52;80646.94;5029179;28;20033;-67
2023/06/13 00:55:22;;;;;;;5.50;3.85;;;;;;;-146.27;41.90;80636.91;5031257;28;20474;-67
2023/06/13 00:57:51;;;;;;;6.43;4.30;;;;;;;-146.27;40.70;80640.94;5024678;28;20037;-68
2023/06/13 01:00:18;;;;;;;6.93;4.22;;;;;;;-146.27;41.46;80691.13;5021814;28;20026;-67
2023/06/13 01:02:45;;;;;;;5.85;3.80;;;;;;;-146.27;41.10;80711.19;5023176;28;20444;-68
2023/06/13 01:05:11;;;;;;;7.50;4.22;;;;;;;-146.27;41.36;80753.38;5025848;28;20025;-67
2023/06/13 01:07:41;;;;;;;5.60;4.10;;;;;;;-146.27;41.60;80737.31;5024285;28;20037;-68
2023/06/13 01:10:08;;;;;;;6.25;3.72;;;;;;;-146.27;41.19;80753.38;5028350;28;20426;-68
2023/06/13 01:12:51;;;;;;;8.15;4.05;;;;;;;-146.27;41.88;80749.34;5026753;28;20029;-67
2023/06/13 01:15:19;;;;;;;4.57;3.97;;;;;;;-146.27;41.91;80789.50;5030855;28;20029;-67
2023/06/13 01:17:57;;;;;;;7.40;4.18;;;;;;;-146.27;43.45;80815.63;5027905;28;20040;-67
2023/06/13 01:20:26;;;;;;;6.78;4.47;;;;;;;-146.27;41.68;80765.41;5023143;28;20025;-67
2023/06/13 01:23:16;;;;;;;8.13;4.35;;;;;;;-146.27;42.41;80765.41;5029486;28;20035;-68
2023/06/13 01:26:00;;;;;;;14.18;4.60;;;;;;;-146.27;41.19;80781.47;5017390;28;20032;-67
2023/06/13 01:28:29;;;;;;;5.85;4.10;;;;;;;-146.27;40.96;80849.75;5022817;28;20048;-67
2023/06/13 01:30:55;;;;;;;9.25;4.82;;;;;;;-146.27;41.37;80821.63;5027876;28;20025;-68
2023/06/13 01:33:23;;;;;;;4.60;4.07;;;;;;;-146.27;41.33;80841.72;5029590;28;20106;-68
2023/06/13 01:35:48;;;;;;;6.13;4.45;;;;;;;-146.27;42.06;80819.63;5029851;28;20032;-69
2023/06/13 01:38:14;;;;;;;6.68;3.97;;;;;;;-146.27;42.67;80839.72;5024542;28;20037;-69
2023/06/13 01:40:40;;;;;;;4.60;4.05;;;;;;;-146.27;43.15;80883.88;5038032;28;20388;-67
2023/06/13 01:43:05;;;;;;;9.25;4.10;;;;;;;-146.27;42.27;80873.84;5033890;28;20033;-68
2023/06/13 01:45:31;;;;;;;9.30;4.57;;;;;;;-146.27;42.21;80889.91;5030893;28;20033;-67
2023/06/13 01:48:24;;;;;;;5.28;4.03;;;;;;;-146.27;42.13;80905.97;5031853;28;20414;-68
2023/06/13 01:51:09;;;;;;;6.60;4.32;;;;;;;-146.27;42.61;80944.13;5031876;28;20029;-68
2023/06/13 01:53:44;;;;;;;9.38;3.80;;;;;;;-146.27;41.93;80974.25;5019273;28;20021;-71
2023/06/13 01:56:17;;;;;;;5.45;3.97;;;;;;;-146.27;42.37;80952.16;5029001;28;20075;-71
2023/06/13 01:58:52;;;;;;;4.80;3.80;;;;;;;-146.27;42.26;80966.22;5029701;28;20026;-71
2023/06/13 02:01:19;;;;;;;4.88;3.85;;;;;;;-146.27;42.26;80980.28;5030316;28;20029;-73
2023/06/13 02:03:45;;;;;;;8.20;5.13;;;;;;;-146.27;43.17;80974.25;5031634;28;20021;-72
2023/06/13 02:06:10;;;;;;;6.80;4.10;;;;;;;-146.27;42.64;80966.22;5031591;28;20489;-72
2023/06/13 02:08:35;;;;;;;7.30;4.97;;;;;;;-146.27;43.21;80990.31;5030654;28;20091;-72
2023/06/13 02:11:01;;;;;;;6.40;4.15;;;;;;;-146.27;42.27;80940.13;5030273;28;20092;-73
2023/06/13 02:13:26;;;;;;;5.38;4.45;;;;;;;-146.27;42.01;80998.34;5030648;28;20065;-72
2023/06/13 02:15:51;;;;;;;7.63;4.25;;;;;;;-146.27;41.53;81006.38;5031924;28;20018;-71
2023/06/13 02:18:17;;;;;;;10.25;4.40;;;;;;;-146.27;42.55;80988.31;5031282;28;20026;-72
2023/06/13 02:20:42;;;;;;;6.07;4.18;;;;;;;-146.27;42.26;80990.31;5031432;28;20066;-71
2023/06/13 02:23:09;;;;;;;7.80;4.53;;;;;;;-146.27;41.87;81038.50;5031403;28;20653;-73
2023/06/13 02:25:34;;;;;;;6.55;4.07;;;;;;;-146.27;43.23;81036.50;5031611;28;20018;-72
2023/06/13 02:28:00;;;;;;;8.85;4.13;;;;;;;-146.27;41.75;81050.56;5027317;28;20048;-72
2023/06/13 02:30:25;;;;;;;5.72;4.13;;;;;;;-146.27;41.63;81038.50;5030413;28;20142;-72
2023/06/13 02:32:52;;;;;;;6.10;3.90;;;;;;;-146.27;41.93;81026.47;5032488;28;20021;-71
2023/06/13 02:35:22;;;;;;;5.68;4.18;;;;;;;-146.27;42.01;81074.66;5030477;28;20095;-72
2023/06/13 02:37:48;;;;;;;5.70;3.97;;;;;;;-146.27;41.49;81078.69;5030921;28;20022;-72
2023/06/13 02:40:13;;;;;;;6.95;4.00;;;;;;;-146.27;42.34;81042.53;5029548;28;20028;-71
2023/06/13 02:42:39;;;;;;;11.82;4.80;;;;;;;-146.27;42.07;81130.88;5028760;28;20653;-72
2023/06/13 02:45:05;;;;;;;5.15;3.97;;;;;;;-146.27;42.35;81062.59;5029161;28;20362;-72
2023/06/13 02:47:32;;;;;;;6.72;4.20;;;;;;;-146.27;42.72;81118.84;5028786;28;20413;-72
2023/06/13 02:49:57;;;;;;;6.13;4.25;;;;;;;-146.27;42.89;81130.88;5029114;28;20029;-72
2023/06/13 02:52:23;;;;;;;8.68;4.20;;;;;;;-146.27;41.83;81122.84;5030317;28;20112;-72
2023/06/13 02:54:49;;;;;;;9.23;4.22;;;;;;;-146.27;41.73;81102.78;5028691;28;20060;-72
2023/06/13 02:57:14;;;;;;;6.65;4.38;;;;;;;-146.27;41.89;81146.97;5029482;28;20516;-71
2023/06/13 02:59:42;;;;;;;6.95;4.18;;;;;;;-146.27;43.24;81106.78;5031029;28;20040;-71
2023/06/13 03:02:07;;;;;;;6.88;3.90;;;;;;;-146.27;43.52;81138.91;5032123;28;20026;-72
2023/06/13 03:04:33;;;;;;;7.78;4.22;;;;;;;-146.27;42.64;81148.97;5032968;28;20025;-71
2023/06/13 03:07:00;;;;;;;7.47;4.00;;;;;;;-146.27;42.60;81191.13;5034637;28;20104;-71
2023/06/13 03:09:25;;;;;;;5.00;3.95;;;;;;;-146.27;43.33;81179.09;5033914;28;20042;-71
2023/06/13 03:11:50;;;;;;;6.30;4.10;;;;;;;-146.27;43.38;81197.16;5035068;28;20857;-72
2023/06/13 03:14:16;;;;;;;9.75;4.05;;;;;;;-146.27;44.21;81167.03;5034139;28;20095;-70
2023/06/13 03:16:42;;;;;;;8.52;3.80;;;;;;;-146.27;44.70;81191.13;5033270;28;20026;-72
2023/06/13 03:19:08;;;;;;;8.45;4.18;;;;;;;-146.27;44.01;81219.25;5034540;28;20100;-72
2023/06/13 03:21:33;;;;;;;8.02;4.18;;;;;;;-146.27;45.74;81223.25;5034473;28;20022;-72
2023/06/13 03:23:58;;;;;;;5.85;4.25;;;;;;;-146.27;44.46;81187.13;5034751;28;20840;-72
2023/06/13 03:26:24;;;;;;;8.50;3.92;;;;;;;-146.27;44.10;81215.22;5033586;28;20112;-72
2023/06/13 03:28:49;;;;;;;7.30;4.25;;;;;;;-146.27;45.73;81259.41;5034275;28;20018;-72
2023/06/13 03:31:15;;;;;;;6.45;4.30;;;;;;;-146.27;45.55;81279.50;5034122;28;20029;-72
2023/06/13 03:33:41;;;;;;;6.25;4.80;;;;;;;-146.27;45.66;81243.34;5034208;28;20049;-72
2023/06/13 03:36:06;;;;;;;8.07;4.50;;;;;;;-146.27;46.45;81275.47;5034082;28;20033;-73
2023/06/13 03:38:32;;;;;;;7.90;4.20;;;;;;;-146.27;45.93;81309.63;5034234;28;20041;-73
2023/06/13 03:40:57;;;;;;;7.63;4.45;;;;;;;-146.27;46.38;81295.56;5034118;28;20036;-72
2023/06/13 03:43:23;;;;;;;8.73;4.70;;;;;;;-146.27;45.42;81345.78;5034377;28;20029;-73
2023/06/13 03:45:48;;;;;;;9.35;4.60;;;;;;;-146.27;45.68;81325.69;5033994;28;20022;-72
2023/06/13 03:48:14;;;;;;;8.68;4.68;;;;;;;-146.27;44.81;81345.78;5033786;28;20045;-73
2023/06/13 03:50:40;;;;;;;6.97;4.38;;;;;;;-146.27;45.38;81345.78;5033879;28;20104;-72
2023/06/13 03:53:05;;;;;;;8.10;4.75;;;;;;;-146.27;45.50;81351.78;5032540;28;20018;-73
2023/06/13 03:55:32;;;;;;;6.05;4.13;;;;;;;-146.27;45.13;81367.88;5031873;28;20128;-72
2023/06/13 03:57:58;;;;;;;14.43;5.00;;;;;;;-146.27;44.53;81367.88;5030134;28;20072;-72
2023/06/13 04:00:23;;;;;;;7.72;4.65;;;;;;;-146.27;44.84;81345.78;5030034;28;20457;-73
2023/06/13 04:02:48;;;;;;;9.88;4.75;;;;;;;-146.27;44.62;81385.94;5030926;28;20183;-72
2023/06/13 04:05:14;;;;;;;6.40;4.80;;;;;;;-146.27;43.76;81339.75;5032085;28;20041;-72
2023/06/13 04:07:40;;;;;;;6.43;4.72;;;;;;;-146.27;43.78;81345.78;5032925;28;20029;-72
2023/06/13 04:10:06;;;;;;;6.00;4.38;;;;;;;-146.27;44.00;81347.78;5032040;28;20049;-72
2023/06/13 04:12:31;;;;;;;10.15;4.13;;;;;;;-146.27;44.41;81323.69;5028613;28;20176;-73
2023/06/13 04:14:58;;;;;;;10.88;4.88;;;;;;;-146.27;43.15;81335.72;5013745;28;20030;-72
2023/06/13 04:17:23;;;;;;;8.02;4.30;;;;;;;-146.27;43.32;81339.75;5019472;28;20504;-72
2023/06/13 04:19:49;;;;;;;8.05;4.57;;;;;;;-146.27;43.66;81333.72;5032940;28;20025;-72
2023/06/13 04:22:16;;;;;;;8.48;4.40;;;;;;;-146.27;44.49;81327.69;5030951;28;20040;-73
2023/06/13 04:24:42;;;;;;;7.22;4.43;;;;;;;-146.27;44.17;81331.72;5031174;28;20024;-72
2023/06/13 04:27:08;;;;;;;7.85;4.55;;;;;;;-146.27;43.98;81307.63;5031200;28;20393;-72
2023/06/13 04:29:34;;;;;;;9.15;4.90;;;;;;;-146.27;44.74;81297.56;5032745;28;20033;-72
2023/06/13 04:32:03;;;;;;;8.73;4.30;;;;;;;-146.27;44.57;81303.59;5031411;28;20037;-73
2023/06/13 04:34:29;;;;;;;6.90;4.45;;;;;;;-146.27;44.83;81319.66;5032258;28;20036;-73
2023/06/13 04:36:57;;;;;;;14.20;4.47;;;;;;;-146.27;44.03;81291.53;5032399;28;20374;-72
2023/06/13 04:39:26;;;;;;;8.82;4.45;;;;;;;-146.27;44.26;81243.34;5029660;28;20482;-73
2023/06/13 04:41:55;;;;;;;13.52;4.28;;;;;;;-146.27;43.98;81259.41;5029079;28;20057;-73
2023/06/13 04:44:28;;;;;;;9.75;4.20;;;;;;;-146.27;44.81;81271.47;5032366;28;20072;-72
2023/06/13 04:47:01;;;;;;;10.05;5.00;;;;;;;-146.27;44.31;81241.34;5033003;28;20107;-72
2023/06/13 04:49:27;;;;;;;9.63;4.43;;;;;;;-146.27;45.04;81209.22;5031990;28;20017;-72
2023/06/13 04:51:54;;;;;;;9.30;4.68;;;;;;;-146.27;44.23;81261.44;5022425;28;20040;-72
2023/06/13 04:54:21;;;;;;;8.57;4.80;;;;;;;-146.27;43.84;81223.25;5026926;28;20484;-72
2023/06/13 04:56:47;;;;;;;6.50;4.10;;;;;;;-146.27;45.11;81223.25;5029562;28;20600;-72
2023/06/13 04:59:13;;;;;;;11.00;4.60;;;;;;;-146.27;44.68;81215.22;5031993;28;20030;-72
2023/06/13 05:01:39;;;;;;;12.25;4.95;;;;;;;-146.27;42.70;81215.22;5027628;28;20035;-72
2023/06/13 05:04:04;;;;;;;8.07;4.43;;;;;;;-146.27;43.11;81225.28;5031689;28;20138;-72
2023/06/13 05:06:30;;;;;;;14.38;4.13;;;;;;;-146.27;43.95;81203.19;5030840;28;20034;-72
2023/06/13 05:08:57;;;;;;;7.32;4.15;;;;;;;-146.27;43.59;81227.28;5031735;28;20017;-72
2023/06/13 05:11:22;;;;;;;10.85;4.80;;;;;;;-146.27;42.86;81251.38;5029954;28;20095;-72
2023/06/13 05:13:48;;;;;;;9.90;4.93;;;;;;;-146.27;43.15;81171.06;5030505;28;20053;-72
2023/06/13 05:16:13;;;;;;;9.88;4.78;;;;;;;-146.27;43.72;81199.16;5029479;28;20030;-72
2023/06/13 05:18:40;;;;;;;6.45;4.65;;;;;;;-146.27;42.98;81177.06;5031162;28;20079;-72
2023/06/13 05:21:06;;;;;;;10.85;5.28;;;;;;;-146.27;42.40;81167.03;5034176;28;20094;-72
2023/06/13 05:23:31;;;;;;;10.05;5.10;;;;;;;-146.27;44.31;81150.97;5027732;28;20545;-72
2023/06/13 05:25:57;;;;;;;11.48;4.93;;;;;;;-146.27;44.01;81155.00;5025539;28;20065;-72
2023/06/13 05:28:22;;;;;;;9.82;4.93;;;;;;;-146.27;43.58;81122.84;5021831;28;20036;-72
2023/06/13 05:30:48;;;;;;;7.13;5.40;;;;;;;-146.27;42.04;81110.81;5023747;28;20043;-72
2023/06/13 05:33:14;;;;;;;9.25;5.05;;;;;;;-146.27;43.82;81060.59;5025737;28;20029;-72
2023/06/13 05:35:40;;;;;;;14.88;4.97;;;;;;;-146.27;42.74;81078.69;5027265;28;20068;-71
2023/06/13 05:38:09;;;;;;;8.85;4.75;;;;;;;-146.27;41.99;81074.66;5018354;28;20029;-73
2023/06/13 05:40:36;;;;;;;8.45;4.82;;;;;;;-146.27;42.87;81048.56;5023593;28;20516;-73
2023/06/13 05:43:01;;;;;;;6.82;4.28;;;;;;;-146.27;42.57;81046.53;5026559;28;20561;-72
2023/06/13 05:45:27;;;;;;;8.45;4.75;;;;;;;-146.27;41.53;81038.50;5028616;28;20120;-72
2023/06/13 05:47:52;;;;;;;9.57;5.20;;;;;;;-146.27;41.80;81006.38;5029041;28;20092;-72
2023/06/13 05:50:18;;;;;;;13.68;4.85;;;;;;;-146.27;42.78;80966.22;5027914;28;20400;-71
2023/06/13 05:52:43;;;;;;;11.35;5.03;;;;;;;-146.27;41.75;80962.22;5036416;28;20397;-72
2023/06/13 05:55:09;;;;;;;10.30;5.07;;;;;;;-146.27;41.57;80962.22;5029205;28;20152;-71
2023/06/13 05:57:42;;;;;;;11.70;4.93;;;;;;;-146.27;42.27;80974.25;5034437;28;20120;-71
2023/06/13 06:00:13;;;;;;;5.10;4.50;;;;;;;-146.27;42.27;80990.31;5034036;28;20112;-72
2023/06/13 06:02:47;;;;;;;13.15;5.55;;;;;;;-146.27;41.64;80948.16;5045185;28;20138;-72
2023/06/13 06:05:13;;;;;;;6.82;5.15;;;;;;;-146.27;41.16;80930.06;5030680;28;20043;-72
2023/06/13 06:07:42;;;;;;;8.45;5.18;;;;;;;-146.27;41.92;80905.97;5040191;28;20025;-72
2023/06/13 06:10:10;;;;;;;7.68;5.22;;;;;;;-146.27;41.64;80901.97;5033549;28;20504;-73
2023/06/13 06:12:35;;;;;;;8.75;4.93;;;;;;;-146.27;42.28;80938.09;5038769;28;20023;-72
2023/06/13 06:15:01;;;;;;;7.30;4.53;;;;;;;-146.27;42.32;80867.81;5040029;28;20393;-72
2023/06/13 06:17:27;;;;;;;9.95;5.40;;;;;;;-146.27;42.05;80897.94;5029173;28;20091;-71
2023/06/13 06:19:52;;;;;;;9.00;4.28;;;;;;;-146.27;42.27;80841.72;5030008;28;20466;-72
2023/06/13 06:22:18;;;;;;;8.52;4.80;;;;;;;-146.27;41.44;80827.66;5030688;28;20366;-74
2023/06/13 06:24:44;;;;;;;11.60;4.65;;;;;;;-146.27;41.73;80777.47;5012417;28;20756;-71
2023/06/13 06:27:11;;;;;;;9.90;5.63;;;;;;;-146.27;41.88;80769.44;5030765;28;20021;-74
2023/06/13 06:29:37;;;;;;;8.18;4.47;;;;;;;-146.27;41.94;80741.31;5029358;28;20121;-73
2023/06/13 06:32:04;;;;;;;13.60;5.15;;;;;;;-146.27;41.45;80673.06;5032790;28;20091;-72
2023/06/13 06:34:30;;;;;;;9.70;4.72;;;;;;;-146.27;40.98;80671.03;5035404;28;20033;-73
2023/06/13 06:36:55;;;;;;;13.88;4.43;;;;;;;-146.27;41.50;80648.97;5038171;28;20474;-73
2023/06/13 06:39:22;;;;;;;12.57;4.90;;;;;;;-146.27;40.41;80612.81;5021705;28;20061;-72
2023/06/13 06:41:47;;;;;;;6.93;4.75;;;;;;;-146.27;40.80;80592.72;5029892;28;20040;-72
2023/06/13 06:44:13;;;;;;;13.38;4.85;;;;;;;-146.27;40.91;80562.63;5032200;28;20612;-74
2023/06/13 06:46:38;;;;;;;6.93;4.40;;;;;;;-146.27;40.70;80580.69;5036837;28;20029;-72
2023/06/13 06:49:03;;;;;;;7.28;4.35;;;;;;;-146.27;41.22;80564.63;5039898;28;20090;-72
2023/06/13 06:51:29;;;;;;;8.23;4.32;;;;;;;-146.27;40.63;80540.53;5042845;28;20024;-72
2023/06/13 06:53:56;;;;;;;6.43;4.80;;;;;;;-146.27;40.44;80494.34;5031614;28;20404;-72
2023/06/13 06:56:21;;;;;;;15.40;5.55;;;;;;;-146.27;39.80;80500.38;5045891;28;20017;-73
2023/06/13 06:58:47;;;;;;;9.40;4.65;;;;;;;-146.27;40.64;80432.09;5035844;28;20044;-73
2023/06/13 07:01:14;;;;;;;6.70;4.82;;;;;;;-146.27;39.92;80436.13;5043895;28;20548;-73
2023/06/13 07:03:40;;;;;;;14.13;4.20;;;;;;;-146.27;40.34;80363.84;5029100;28;20038;-73
2023/06/13 07:06:06;;;;;;;8.15;4.78;;;;;;;-146.27;39.98;80385.94;5032856;28;20029;-73
2023/06/13 07:08:32;;;;;;;7.57;4.32;;;;;;;-146.27;40.96;80313.66;5031919;28;20037;-72
2023/06/13 07:10:58;;;;;;;8.13;3.90;;;;;;;-146.27;40.90;80299.59;5029068;28;20127;-74
2023/06/13 07:13:25;;;;;;;15.40;4.40;;;;;;;-146.27;38.47;80279.50;5024491;28;20021;-74
2023/06/13 07:15:51;;;;;;;11.10;4.07;;;;;;;-146.27;39.39;80215.25;5024575;28;20056;-74
2023/06/13 07:18:16;;;;;;;15.57;5.07;;;;;;;-146.27;39.13;80195.19;5029503;28;20041;-74
2023/06/13 07:20:41;;;;;;;6.72;3.80;;;;;;;-146.27;39.18;80171.09;5028704;28;20040;-74
2023/06/13 07:23:07;;;;;;;9.60;4.57;;;;;;;-146.27;39.39;80155.03;5026644;28;20022;-74
2023/06/13 07:25:32;;;;;;;7.38;4.40;;;;;;;-146.27;38.94;80070.72;5029922;28;20036;-75
2023/06/13 07:27:58;;;;;;;10.45;4.10;;;;;;;-146.27;38.47;80058.66;5029620;28;20026;-73
2023/06/13 07:30:24;;;;;;;7.80;3.72;;;;;;;-146.27;38.37;80012.50;5029905;28;20033;-73
2023/06/13 07:32:50;;;;;;;7.85;4.30;;;;;;;-146.27;38.40;80010.47;5028778;28;20079;-73
2023/06/13 07:35:16;;;;;;;6.28;4.63;;;;;;;-146.27;37.94;79986.41;5029742;28;20500;-74
2023/06/13 07:37:42;;;;;;;6.90;4.10;;;;;;;-146.27;38.05;79928.16;5029842;28;20083;-73
2023/06/13 07:40:08;;;;;;;12.07;4.13;;;;;;;-146.27;38.49;79902.06;5027685;28;20026;-73
2023/06/13 07:42:34;;;;;;;8.15;4.30;;;;;;;-146.27;39.21;79865.94;5026853;28;20477;-71
2023/06/13 07:45:00;;;;;;;7.05;3.80;;;;;;;-146.27;39.06;79813.75;5022696;28;20396;-70
2023/06/13 07:47:25;;;;;;;8.35;4.13;;;;;;;-146.27;37.87;79777.59;5033735;28;20121;-70
2023/06/13 07:49:51;;;;;;;17.88;3.90;;;;;;;-146.27;37.11;79773.59;5034105;28;20473;-71
2023/06/13 07:52:16;;;;;;;14.70;4.00;;;;;;;-146.27;36.99;79689.28;5033976;28;20053;-69
2023/06/13 07:54:41;;;;;;;6.50;3.80;;;;;;;-146.27;37.63;79661.16;5028584;28;20021;-71
2023/06/13 07:57:07;;;;;;;5.85;3.78;;;;;;;-146.27;37.54;79576.88;5027577;28;20477;-70
2023/06/13 07:59:32;;;;;;;9.65;4.38;;;;;;;-146.27;37.13;79611.00;5026304;28;20079;-70
2023/06/13 08:01:59;;;;;;;6.22;3.95;;;;;;;-146.27;36.26;79536.72;5031330;28;20117;-70
2023/06/13 08:04:25;;;;;;;8.10;3.63;;;;;;;-146.27;36.47;79524.66;5031263;28;20029;-70
2023/06/13 08:06:50;;;;;;;10.98;3.60;;;;;;;-146.27;36.56;79444.38;5031573;28;20029;-69
2023/06/13 08:09:17;;;;;;;4.55;3.67;;;;;;;-146.27;36.12;79428.31;5032669;28;20033;-70
2023/06/13 08:11:43;;;;;;;4.72;3.72;;;;;;;-146.27;36.08;79432.34;5030592;28;20027;-71
2023/06/13 08:14:12;;;;;;;7.25;3.83;;;;;;;-146.27;34.90;79346.03;5031840;28;20035;-71
2023/06/13 08:16:38;;;;;;;7.47;4.10;;;;;;;-146.27;33.84;79333.97;5032981;28;20033;-70
2023/06/13 08:19:04;;;;;;;6.60;3.95;;;;;;;-146.27;34.24;79275.75;5033241;28;20140;-71
2023/06/13 08:21:33;;;;;;;7.28;4.05;;;;;;;-146.27;34.16;79223.56;5020379;28;20033;-70
2023/06/13 08:24:02;;;;;;;9.40;4.07;;;;;;;-146.27;33.72;79235.63;5032718;28;20099;-70
2023/06/13 08:26:32;;;;;;;7.20;4.15;;;;;;;-146.27;33.68;79209.53;5032354;28;20052;-70
2023/06/13 08:29:01;;;;;;;5.43;4.13;;;;;;;-146.27;33.28;79173.41;5017023;28;20552;-70
2023/06/13 08:31:27;;;;;;;7.32;3.90;;;;;;;-146.27;34.53;79125.22;5033756;28;20033;-71
2023/06/13 08:33:55;;;;;;;4.90;3.67;;;;;;;-146.27;35.45;79083.06;5032182;28;20104;-70
2023/06/13 08:36:23;;;;;;;6.70;4.03;;;;;;;-146.27;33.91;79054.97;5038926;28;20048;-70
2023/06/13 08:38:49;;;;;;;6.93;3.85;;;;;;;-146.27;34.87;79042.94;5027540;28;20036;-70
2023/06/13 08:41:15;;;;;;;10.00;4.05;;;;;;;-146.27;33.38;78986.72;5045996;28;20361;-72
2023/06/13 08:43:42;;;;;;;7.45;4.18;;;;;;;-146.27;32.82;78954.63;5031383;28;20143;-70
2023/06/13 08:46:08;;;;;;;7.20;3.95;;;;;;;-146.27;32.34;78946.59;5049058;28;20032;-71
2023/06/13 08:48:33;;;;;;;7.40;4.47;;;;;;;-146.27;32.66;78954.63;5030199;28;20394;-70
2023/06/13 08:51:04;;;;;;;12.13;4.07;;;;;;;-146.27;32.14;78846.25;5029709;28;20147;-72
2023/06/13 08:53:31;;;;;;;12.13;4.15;;;;;;;-146.27;32.02;78830.19;5043470;28;20126;-70
2023/06/13 08:56:03;;;;;;;7.45;3.83;;;;;;;-146.27;32.16;78798.06;5012715;28;20025;-71
2023/06/13 08:58:38;;;;;;;5.13;3.72;;;;;;;-146.27;32.14;78749.91;5022372;28;20389;-71
2023/06/13 09:01:05;;;;;;;7.97;3.78;;;;;;;-146.27;31.83;78703.75;5031565;28;20025;-71
2023/06/13 09:03:31;;;;;;;10.20;3.90;;;;;;;-146.27;30.79;78683.66;5030774;28;20410;-71
2023/06/13 09:05:58;;;;;;;14.88;4.10;;;;;;;-146.27;30.82;78697.72;5031471;28;20044;-70
2023/06/13 09:08:24;;;;;;;6.95;3.97;;;;;;;-146.27;30.53;78669.63;5030152;28;20022;-70
2023/06/13 09:10:51;;;;;;;10.77;3.67;;;;;;;-146.27;30.38;78601.38;5025449;28;20132;-69
2023/06/13 09:13:17;;;;;;;5.03;4.22;;;;;;;-146.27;29.30;78589.34;5032285;28;20125;-71
2023/06/13 09:15:44;;;;;;;5.40;3.75;;;;;;;-146.27;29.56;78527.13;5032463;28;20465;-69
2023/06/13 09:18:11;;;;;;;10.88;3.80;;;;;;;-146.27;30.45;78480.97;5027999;28;20025;-70
2023/06/13 09:20:36;;;;;;;8.35;4.05;;;;;;;-146.27;30.59;78378.63;5030942;28;20021;-70
2023/06/13 09:23:03;;;;;;;9.25;3.70;;;;;;;-146.27;28.69;78396.69;5031592;28;20452;-69
2023/06/13 09:25:31;;;;;;;6.95;3.80;;;;;;;-146.27;29.10;78394.69;5031448;28;20029;-71
2023/06/13 09:27:57;;;;;;;8.88;4.20;;;;;;;-146.27;28.87;78302.38;5028349;28;20448;-70
2023/06/13 09:30:22;;;;;;;20.23;4.53;;;;;;;-146.27;28.12;78302.38;5030065;28;20048;-71
2023/06/13 09:32:49;;;;;;;8.88;4.25;;;;;;;-146.27;27.99;78276.28;5025774;28;20132;-71
2023/06/13 09:35:16;;;;;;;6.88;3.60;;;;;;;-146.27;28.28;78167.91;5031377;28;20121;-71
2023/06/13 09:37:42;;;;;;;9.20;3.85;;;;;;;-146.27;28.34;78139.81;5031118;28;20104;-71
2023/06/13 09:40:09;;;;;;;7.65;4.40;;;;;;;-146.27;28.40;78023.44;5028994;28;20095;-70
2023/06/13 09:42:35;;;;;;;8.75;4.10;;;;;;;-146.27;27.32;78133.81;5029320;28;20029;-70
2023/06/13 09:45:06;;;;;;;5.60;3.38;;;;;;;-146.27;27.86;78053.53;5021625;28;20556;-70
2023/06/13 09:47:33;;;;;;;10.10;3.67;;;;;;;-146.27;27.39;78049.53;5026432;28;20346;-71
2023/06/13 09:50:00;;;;;;;8.10;3.88;;;;;;;-146.27;27.63;77973.28;5029657;28;20071;-70
2023/06/13 09:52:27;;;;;;;9.32;3.70;;;;;;;-146.27;26.81;78023.44;5030282;28;20083;-70
2023/06/13 09:54:52;;;;;;;7.68;3.70;;;;;;;-146.27;27.57;77923.09;5031010;28;20025;-70
2023/06/13 09:57:21;;;;;;;11.32;3.80;;;;;;;-146.27;26.60;77927.13;5028303;28;20052;-70
2023/06/13 09:59:48;;;;;;;5.68;4.10;;;;;;;-146.27;27.04;77891.00;5030009;28;20029;-71
2023/06/13 10:02:15;;;;;;;14.90;4.43;;;;;;;-146.27;28.01;77852.88;5026712;28;20025;-72
2023/06/13 10:04:41;;;;;;;6.07;3.97;;;;;;;-146.27;27.45;77732.50;5011280;28;20026;-72
2023/06/13 10:07:06;;;;;;;7.50;3.88;;;;;;;-146.27;27.45;77694.38;5024658;28;20108;-72
2023/06/13 10:09:32;;;;;;;5.68;4.03;;;;;;;-146.27;26.79;77678.31;5029409;28;20065;-72
2023/06/13 10:11:59;;;;;;;9.90;4.07;;;;;;;-146.27;27.76;77654.22;5027625;28;20130;-71
2023/06/13 10:14:27;;;;;;;9.15;4.13;;;;;;;-146.27;26.63;77666.28;5023634;28;20026;-71
2023/06/13 10:17:02;;;;;;;8.13;4.03;;;;;;;-146.27;27.10;77626.16;5022237;28;20022;-72
2023/06/13 10:19:29;;;;;;;5.45;4.13;;;;;;;-146.27;26.33;77626.16;5030555;28;20037;-72
2023/06/13 10:21:55;;;;;;;8.18;4.20;;;;;;;-146.27;26.68;77537.88;5024497;28;20029;-71
2023/06/13 10:24:22;;;;;;;12.90;3.80;;;;;;;-146.27;27.38;77525.81;5023121;28;20394;-72
2023/06/13 10:26:50;;;;;;;6.32;3.88;;;;;;;-146.27;27.01;77449.59;5018686;28;20029;-72
2023/06/13 10:29:34;;;;;;;7.78;3.90;;;;;;;-146.27;27.56;77321.19;5022679;28;20023;-73
2023/06/13 10:32:17;;;;;;;5.50;3.55;;;;;;;-146.27;27.94;77218.88;5020129;28;20440;-71
2023/06/13 10:34:48;;;;;;;7.88;3.83;;;;;;;-146.27;26.85;77088.47;5019805;28;20108;-70
2023/06/13 10:37:53;;;;;;;14.55;3.80;;;;;;;-146.27;26.30;77090.47;5021529;28;20468;-72
2023/06/13 10:40:34;;;;;;;6.35;3.90;;;;;;;-146.27;26.60;76968.09;5019278;28;20026;-71
2023/06/13 10:43:07;;;;;;;6.57;3.75;;;;;;;-146.27;26.00;76934.00;5021998;28;20037;-70
2023/06/13 10:45:34;;;;;;;10.48;3.83;;;;;;;-146.27;25.46;77044.31;5020522;28;20033;-72
2023/06/13 10:48:05;;;;;;;7.82;3.92;;;;;;;-146.27;26.06;76976.13;5020745;28;20038;-71
2023/06/13 10:50:37;;;;;;;7.53;3.90;;;;;;;-146.27;26.15;76851.75;5018760;28;20552;-71
2023/06/13 10:53:03;;;;;;;5.88;3.88;;;;;;;-146.27;26.52;76911.91;5018007;28;20120;-71
2023/06/13 10:55:29;;;;;;;8.07;3.88;;;;;;;-146.27;26.87;76875.81;5023071;28;20480;-71
2023/06/13 10:58:02;;;;;;;8.50;3.60;;;;;;;-146.27;26.44;76763.47;5024654;28;20112;-70
2023/06/13 11:00:31;;;;;;;;;;;;;;;-146.27;25.77;76775.50;5030347;28;20034;-70
2023/06/13 11:03:00;;;;;;;9.10;4.13;;;;;;;-146.27;25.54;76679.22;5028937;28;19913;-70
2023/06/13 11:05:27;;;;;;;7.18;3.67;;;;;;;-146.27;26.52;76659.16;5028596;28;20052;-71
2023/06/13 11:07:55;;;;;;;7.10;3.72;;;;;;;-146.27;25.64;76673.22;5026526;28;20076;-71
2023/06/13 11:10:22;;;;;;;9.70;4.03;;;;;;;-146.27;26.17;76615.03;5027818;28;20048;-71
2023/06/13 11:12:47;;;;;;;9.73;4.03;;;;;;;-146.27;25.62;76615.03;5029738;28;20048;-70
2023/06/13 11:15:24;;;;;;;6.00;3.60;;;;;;;-146.27;26.48;76454.56;5029883;28;20037;-71
2023/06/13 11:18:05;;;;;;;8.93;4.28;;;;;;;-146.27;25.90;76416.47;5027826;28;20432;-71